»·PEaware :: SWA1066 KSFO-KPDX

SWA1066 :: KSFO-KPDX

FLIGHT INFORMATION

Flight Status: Arrived
Operator:
Southwest Airlines
More flights by this operator :: More flights under this callsign
Pilot: Utku A. (15598)
Aircraft: BOEING 737-300
(B733)
More flights by this aircraft type
Origin: KSFO San Francisco Intl
United States
Destination: KPDX Portland Intl
United States
More flights between these airports :: More routes between these airports
Route: + NIITE3 GRTFL MACHU TMBRS2
File this flight plan on PilotEdge
Remarks: 2nd shared cockpit flight. let's see how this goes.
Altitude:
(Current/Filed)
36,000ft
Speed:
(Current/Filed)
440kts
Departed: 17-Jul-18 09:10 AM
Arrived: 17-Jul-18 10:45 AM
Distance/Time
Traveled:
478nm/1:35
Distance/Time
To Go:
Arrived

Flight Plot

Page will automatically refresh every two minutes.

Flight plan parsing failed; only flown route is shown


Map Options




Map Legend


Flown Route
Filed Route
Departure Airport
Arrival Airport
Navaid (VOR, NDB)
Fix

Horizontal Profiles

Position Reports

Time Latitude Longitude Heading Altitude Ground
Speed
17-Jul-18 08:34 37.612841 -122.383195 296 30ft 0kts
17-Jul-18 08:35 37.612841 -122.383195 296 30ft 0kts
17-Jul-18 08:36 37.612841 -122.383195 296 30ft 0kts
17-Jul-18 08:37 37.612841 -122.383195 296 30ft 0kts
17-Jul-18 08:38 37.612841 -122.383195 296 30ft 0kts
17-Jul-18 08:39 37.612841 -122.383195 296 30ft 0kts
17-Jul-18 08:40 37.612841 -122.383195 296 30ft 0kts
17-Jul-18 08:41 37.612841 -122.383195 296 30ft 0kts
17-Jul-18 08:42 37.612841 -122.383195 296 30ft 0kts
17-Jul-18 08:43 37.612841 -122.383195 296 30ft 0kts
17-Jul-18 08:44 37.612841 -122.383195 296 30ft 0kts
17-Jul-18 08:45 37.612841 -122.383195 296 30ft 0kts
17-Jul-18 08:46 37.612841 -122.383195 296 30ft 0kts
17-Jul-18 08:47 37.612841 -122.383195 296 30ft 0kts
17-Jul-18 08:48 37.612841 -122.383195 296 30ft 0kts
17-Jul-18 08:49 37.612841 -122.383195 296 30ft 0kts
17-Jul-18 08:50 37.612841 -122.383195 296 30ft 0kts
17-Jul-18 08:51 37.612841 -122.383195 296 30ft 0kts
17-Jul-18 08:52 37.612841 -122.383195 296 30ft 0kts
17-Jul-18 08:53 37.612841 -122.383195 296 30ft 0kts
17-Jul-18 08:54 37.612841 -122.383195 296 30ft 0kts
17-Jul-18 08:55 37.612841 -122.383195 296 30ft 0kts
17-Jul-18 08:56 37.612841 -122.383195 296 30ft 0kts
17-Jul-18 08:57 37.612841 -122.383195 296 30ft 0kts
17-Jul-18 08:58 37.612841 -122.383195 296 30ft 0kts
17-Jul-18 08:59 37.612745 -122.382953 297 30ft 2kts
17-Jul-18 09:00 37.612628 -122.382327 240 30ft 2kts
17-Jul-18 09:01 37.612798 -122.382160 208 30ft 0kts
17-Jul-18 09:02 37.612798 -122.382160 208 30ft 0kts
17-Jul-18 09:03 37.612798 -122.382160 208 30ft 0kts
17-Jul-18 09:04 37.612798 -122.382160 208 30ft 0kts
17-Jul-18 09:05 37.612798 -122.382160 208 30ft 0kts
17-Jul-18 09:06 37.612765 -122.382182 208 30ft 2kts
17-Jul-18 09:07 37.609265 -122.384753 200 30ft 10kts
17-Jul-18 09:08 37.608515 -122.383970 118 30ft 0kts
17-Jul-18 09:09 37.608512 -122.383965 118 30ft 0kts
17-Jul-18 09:10 37.608745 -122.382358 28 28ft 11kts
17-Jul-18 09:11 37.642192 -122.355868 41 2636ft 195kts
17-Jul-18 09:12 37.680264 -122.310136 31 5509ft 215kts
17-Jul-18 09:13 37.735299 -122.322112 326 8305ft 233kts
17-Jul-18 09:14 37.796743 -122.360750 336 11035ft 262kts
17-Jul-18 09:15 37.879181 -122.388454 357 12929ft 342kts
17-Jul-18 09:16 37.969492 -122.387877 19 15933ft 361kts
17-Jul-18 09:17 38.065666 -122.344901 16 18841ft 378kts
17-Jul-18 09:18 38.167576 -122.304695 16 21482ft 396kts
17-Jul-18 09:19 38.274484 -122.262326 16 23929ft 412kts
17-Jul-18 09:20 38.386993 -122.233751 352 26094ft 423kts
17-Jul-18 09:21 38.505831 -122.247283 352 28175ft 437kts
17-Jul-18 09:22 38.627107 -122.259885 352 30462ft 437kts
17-Jul-18 09:23 38.747060 -122.272382 352 32678ft 432kts
17-Jul-18 09:24 38.866261 -122.284840 352 34552ft 429kts
17-Jul-18 09:25 38.984237 -122.297221 349 35968ft 428kts
17-Jul-18 09:26 39.100961 -122.309498 348 36055ft 420kts
17-Jul-18 09:27 39.217017 -122.321697 348 36064ft 421kts
17-Jul-18 09:28 39.333105 -122.333990 348 36046ft 421kts
17-Jul-18 09:29 39.449677 -122.346387 348 36039ft 421kts
17-Jul-18 09:30 39.565783 -122.358772 348 36038ft 421kts
17-Jul-18 09:31 39.682351 -122.371249 348 36045ft 421kts
17-Jul-18 09:32 39.798969 -122.383775 348 36048ft 421kts
17-Jul-18 09:33 39.915306 -122.396312 348 36046ft 421kts
17-Jul-18 09:34 40.028133 -122.408512 348 36050ft 421kts
17-Jul-18 09:35 40.143461 -122.420979 348 36029ft 421kts
17-Jul-18 09:36 40.259924 -122.433615 348 36043ft 421kts
17-Jul-18 09:37 40.376514 -122.446352 348 36039ft 421kts
17-Jul-18 09:38 40.493138 -122.459134 348 36041ft 421kts
17-Jul-18 09:39 40.609368 -122.471917 348 36037ft 421kts
17-Jul-18 09:40 40.725528 -122.484740 348 36038ft 421kts
17-Jul-18 09:41 40.842027 -122.497646 348 36039ft 421kts
17-Jul-18 09:42 40.958181 -122.510552 348 36035ft 420kts
17-Jul-18 09:43 41.074371 -122.523505 347 36077ft 417kts
17-Jul-18 09:44 41.186362 -122.535968 346 36132ft 415kts
17-Jul-18 09:45 41.301099 -122.548847 346 36175ft 415kts
17-Jul-18 09:46 41.415942 -122.561799 346 36176ft 416kts
17-Jul-18 09:47 41.516219 -122.573508 345 36174ft 415kts
17-Jul-18 09:48 41.632006 -122.582134 349 36177ft 419kts
17-Jul-18 09:49 41.748218 -122.589637 348 36177ft 419kts
17-Jul-18 09:50 41.864051 -122.597182 348 36175ft 419kts
17-Jul-18 09:51 41.980117 -122.604769 348 36175ft 418kts
17-Jul-18 09:52 42.096094 -122.612383 348 36174ft 418kts
17-Jul-18 09:53 42.211565 -122.620047 348 36144ft 419kts
17-Jul-18 09:54 42.327618 -122.627817 348 36121ft 418kts
17-Jul-18 09:55 42.443391 -122.635534 348 36118ft 418kts
17-Jul-18 09:56 42.540200 -122.642018 348 36123ft 419kts
17-Jul-18 09:57 42.655799 -122.649779 348 36125ft 418kts
17-Jul-18 09:58 42.771388 -122.657851 348 36118ft 417kts
17-Jul-18 09:59 42.886777 -122.665779 348 36119ft 417kts
17-Jul-18 10:00 43.021970 -122.675051 348 36123ft 416kts
17-Jul-18 10:01 43.117484 -122.681569 348 36095ft 419kts
17-Jul-18 10:02 43.232920 -122.689396 348 36002ft 419kts
17-Jul-18 10:05 43.581197 -122.713502 349 31666ft 425kts
17-Jul-18 10:06 43.699416 -122.721665 349 30286ft 430kts
17-Jul-18 10:07 43.818929 -122.729945 350 28903ft 433kts
17-Jul-18 10:08 43.939419 -122.738331 350 27425ft 437kts
17-Jul-18 10:09 44.061226 -122.746837 351 25940ft 441kts
17-Jul-18 10:10 44.163812 -122.752241 357 24633ft 440kts
17-Jul-18 10:11 44.202877 -122.748342 359 24081ft 431kts
17-Jul-18 10:12 44.306045 -122.736804 359 22444ft 399kts
17-Jul-18 10:13 44.412818 -122.724684 359 20643ft 379kts
17-Jul-18 10:14 44.516818 -122.716411 358 18855ft 374kts
17-Jul-18 10:15 44.615012 -122.707140 359 17127ft 363kts
17-Jul-18 10:16 44.714364 -122.697202 0 15330ft 353kts
17-Jul-18 10:17 44.810625 -122.687505 0 13536ft 343kts
17-Jul-18 10:18 44.874781 -122.681073 1 12969ft 338kts
17-Jul-18 10:19 44.922617 -122.676245 1 12940ft 332kts
17-Jul-18 10:20 44.974401 -122.671071 0 12526ft 313kts
17-Jul-18 10:21 45.038185 -122.665290 0 11623ft 305kts
17-Jul-18 10:22 45.116248 -122.658392 3 9966ft 297kts
17-Jul-18 10:23 45.195950 -122.649092 2 8121ft 274kts
17-Jul-18 10:24 45.262371 -122.631769 31 7786ft 249kts
17-Jul-18 10:25 45.313669 -122.585552 31 6271ft 246kts
17-Jul-18 10:26 45.368338 -122.536230 30 4972ft 229kts
17-Jul-18 10:27 45.414925 -122.494347 30 4673ft 219kts
17-Jul-18 10:28 45.465478 -122.449171 30 3257ft 207kts
17-Jul-18 10:29 45.511869 -122.435714 329 2393ft 151kts
17-Jul-18 10:30 45.539989 -122.479363 296 1616ft 149kts
17-Jul-18 10:31 45.558718 -122.528219 299 816ft 138kts
17-Jul-18 10:32 45.577175 -122.575467 299 181ft 131kts
17-Jul-18 10:33 45.595152 -122.622282 293 691ft 130kts
17-Jul-18 10:34 45.575801 -122.667872 222 2106ft 154kts
17-Jul-18 10:35 45.539757 -122.693627 151 3863ft 159kts
17-Jul-18 10:36 45.510915 -122.638318 124 4042ft 192kts
17-Jul-18 10:37 45.478017 -122.570805 125 3941ft 211kts
17-Jul-18 10:38 45.445173 -122.505469 123 4017ft 198kts
17-Jul-18 10:39 45.414095 -122.441192 112 3988ft 194kts
17-Jul-18 10:40 45.442612 -122.390564 9 3518ft 183kts
17-Jul-18 10:41 45.485509 -122.421956 324 2558ft 175kts
17-Jul-18 10:42 45.523387 -122.464211 319 2095ft 171kts
17-Jul-18 10:43 45.551119 -122.508378 299 1102ft 134kts
17-Jul-18 10:44 45.568888 -122.554398 298 492ft 135kts
17-Jul-18 10:45 45.586547 -122.599090 299 36ft 129kts
17-Jul-18 10:46 45.593379 -122.612092 116 36ft 23kts
17-Jul-18 10:47 45.591017 -122.606142 131 36ft 9kts
17-Jul-18 10:48 45.589419 -122.601301 122 36ft 17kts
17-Jul-18 10:49 45.589620 -122.599427 60 36ft 0kts
17-Jul-18 10:50 45.589620 -122.599427 60 36ft 0kts

Navigation Log

Ident Type
Flight plan parsing failed, navigation log unavailable